Time;durP1;ratioP1;P1;durP2;ratioP2;P2;SDS_P1;SDS_P2;PMS_P1;PMS_P2;Temp;Humidity;BMP_temperature;BMP_pressure;BME280_temperature;BME280_humidity;BME280_pressure;Samples;Min_cycle;Max_cycle;Signal;HPM_P1;HPM_P2
2022/09/11 00:01:47;;;;;;;9.73;6.15;;;;;;;15.99;100.00;98967.27;1758334;81;20933;-75
2022/09/11 00:04:13;;;;;;;15.23;6.58;;;;;;;16.16;100.00;98970.13;1758259;81;21219;-71
2022/09/11 00:06:39;;;;;;;14.90;7.33;;;;;;;16.05;100.00;98961.61;1758414;81;20981;-71
2022/09/11 00:09:07;;;;;;;10.72;6.60;;;;;;;16.05;100.00;98957.44;1758453;81;21473;-73
2022/09/11 00:11:40;;;;;;;8.83;6.05;;;;;;;16.12;100.00;98955.97;1758330;81;20953;-73
2022/09/11 00:14:09;;;;;;;14.38;6.45;;;;;;;15.95;100.00;98951.08;1758178;81;20965;-73
2022/09/11 00:16:40;;;;;;;12.63;6.50;;;;;;;15.97;100.00;98952.13;1758462;81;21125;-69
2022/09/11 00:19:20;;;;;;;10.58;5.80;;;;;;;15.84;100.00;98958.43;1758101;80;21540;-71
2022/09/11 00:21:49;;;;;;;12.15;7.05;;;;;;;15.94;100.00;98951.69;1758050;80;21498;-73
2022/09/11 00:24:15;;;;;;;10.65;6.62;;;;;;;15.97;100.00;98941.80;1758301;81;20933;-75
2022/09/11 00:26:41;;;;;;;9.98;5.65;;;;;;;15.94;100.00;98945.32;1758659;81;20872;-71
2022/09/11 00:29:09;;;;;;;11.43;6.47;;;;;;;15.88;100.00;98937.88;1758255;81;21513;-70
2022/09/11 00:31:36;;;;;;;15.32;6.97;;;;;;;16.01;100.00;98941.31;1758084;81;20972;-74
2022/09/11 00:34:03;;;;;;;11.68;7.10;;;;;;;16.03;100.00;98936.19;1758338;81;20921;-71
2022/09/11 00:36:30;;;;;;;11.15;6.35;;;;;;;16.05;100.00;98932.43;1758200;81;21105;-72
2022/09/11 00:38:57;;;;;;;10.58;6.03;;;;;;;16.09;100.00;98934.49;1758237;81;20976;-74
2022/09/11 00:41:30;;;;;;;9.53;5.78;;;;;;;16.11;100.00;98936.29;1758138;80;21945;-77
2022/09/11 00:44:06;;;;;;;10.55;6.53;;;;;;;16.07;100.00;98932.05;1758276;81;20972;-74
2022/09/11 00:46:54;;;;;;;11.18;7.00;;;;;;;16.00;100.00;98934.74;1758308;81;20929;-73
2022/09/11 00:49:43;;;;;;;12.10;7.25;;;;;;;16.14;100.00;98930.80;1758211;81;20901;-71
2022/09/11 00:52:24;;;;;;;10.85;6.85;;;;;;;16.33;100.00;98929.67;1763735;80;20870;-73
2022/09/11 00:55:03;;;;;;;13.28;6.95;;;;;;;16.20;100.00;98921.56;1789349;80;21067;-73
2022/09/11 00:57:33;;;;;;;11.22;6.58;;;;;;;16.32;100.00;98930.28;1789422;78;20922;-73
2022/09/11 01:00:00;;;;;;;8.95;6.50;;;;;;;16.32;100.00;98920.55;1789379;80;20994;-73
2022/09/11 01:02:29;;;;;;;11.45;7.37;;;;;;;16.24;100.00;98924.41;1789338;80;20934;-72
2022/09/11 01:04:56;;;;;;;8.83;5.83;;;;;;;16.34;100.00;98915.43;1763218;80;20894;-75
2022/09/11 01:07:23;;;;;;;10.10;6.30;;;;;;;16.43;100.00;98920.12;1789407;80;21110;-72
2022/09/11 01:09:52;;;;;;;9.00;6.72;;;;;;;16.41;100.00;98927.24;1789351;80;20930;-72
2022/09/11 01:12:41;;;;;;;12.05;6.40;;;;;;;16.42;100.00;98919.10;1789265;80;20917;-69
2022/09/11 01:15:23;;;;;;;11.85;6.95;;;;;;;16.45;100.00;98921.70;1789243;80;20997;-71
2022/09/11 01:18:25;;;;;;;9.03;7.00;;;;;;;16.50;100.00;98922.20;1789669;80;20863;-68
2022/09/11 01:21:09;;;;;;;11.40;7.80;;;;;;;16.55;100.00;98917.70;1789345;79;21849;-73
2022/09/11 01:23:52;;;;;;;14.25;7.50;;;;;;;16.64;100.00;98918.02;1788660;78;20949;-73
2022/09/11 01:26:58;;;;;;;11.88;7.05;;;;;;;16.67;100.00;98919.45;1789582;80;21490;-70
2022/09/11 01:29:44;;;;;;;10.30;6.62;;;;;;;16.70;100.00;98922.67;1715271;82;20940;-69
2022/09/11 01:32:38;;;;;;;10.43;7.10;;;;;;;16.65;100.00;98908.52;1768490;81;21419;-73
2022/09/11 01:35:39;;;;;;;8.55;6.72;;;;;;;16.84;100.00;98915.11;1802930;79;20954;-70
2022/09/11 01:38:28;;;;;;;14.47;7.28;;;;;;;16.81;100.00;98915.84;1795480;79;20847;-71
2022/09/11 01:41:11;;;;;;;11.80;6.70;;;;;;;16.88;100.00;98916.76;1803772;79;21408;-70
2022/09/11 01:44:05;;;;;;;;;;;;;;;16.69;100.00;98910.73;1805990;79;20942;-71
2022/09/11 01:46:39;;;;;;;11.88;6.40;;;;;;;16.64;100.00;98910.48;1770378;79;20132;-71
2022/09/11 01:49:24;;;;;;;11.05;6.70;;;;;;;16.74;100.00;98920.72;1792515;80;21104;-72
2022/09/11 01:51:55;;;;;;;9.20;5.55;;;;;;;16.75;100.00;98917.56;1793040;80;20976;-74
2022/09/11 01:54:24;;;;;;;8.95;5.60;;;;;;;16.88;100.00;98910.37;1793000;80;20922;-74
2022/09/11 01:57:03;;;;;;;11.85;6.28;;;;;;;16.94;100.00;98911.64;1792719;80;21510;-73
2022/09/11 01:59:35;;;;;;;11.03;5.45;;;;;;;16.98;100.00;98901.95;1766212;80;20985;-71
2022/09/11 02:02:05;;;;;;;9.40;5.30;;;;;;;16.99;100.00;98907.13;1792344;80;20977;-73
2022/09/11 02:04:43;;;;;;;9.65;5.55;;;;;;;17.06;100.00;98895.28;1766549;80;20918;-73
2022/09/11 02:07:16;;;;;;;10.78;5.80;;;;;;;17.09;100.00;98896.53;1792726;78;20978;-71
2022/09/11 02:09:48;;;;;;;9.95;5.85;;;;;;;17.07;100.00;98893.31;1793361;80;20842;-76
2022/09/11 02:12:39;;;;;;;8.40;5.70;;;;;;;17.02;100.00;98898.05;1788359;80;21017;-71
2022/09/11 02:15:08;;;;;;;10.90;6.40;;;;;;;17.06;100.00;98895.90;1792847;80;21156;-76
2022/09/11 02:17:58;;;;;;;8.98;5.33;;;;;;;17.03;100.00;98894.08;1786529;80;21351;-73
2022/09/11 02:20:26;;;;;;;11.15;5.60;;;;;;;17.06;100.00;98893.12;1792739;80;21498;-74
2022/09/11 02:22:54;;;;;;;9.38;5.60;;;;;;;17.08;100.00;98895.72;1792851;80;20946;-72
2022/09/11 02:25:22;;;;;;;6.78;5.03;;;;;;;17.11;100.00;98891.42;1793131;78;20981;-71
2022/09/11 02:27:51;;;;;;;5.60;5.00;;;;;;;17.12;100.00;98890.22;1792554;80;21150;-73
2022/09/11 02:30:17;;;;;;;9.33;5.03;;;;;;;17.12;100.00;98895.79;1791788;80;21542;-71
2022/09/11 02:32:44;;;;;;;6.53;5.15;;;;;;;17.17;100.00;98898.81;1793267;80;21008;-72
2022/09/11 02:35:10;;;;;;;9.60;5.35;;;;;;;17.23;100.00;98904.27;1792851;80;20998;-69
2022/09/11 02:38:03;;;;;;;8.68;5.80;;;;;;;17.30;100.00;98903.55;1793015;78;20968;-71
2022/09/11 02:40:57;;;;;;;10.63;5.08;;;;;;;17.31;100.00;98905.14;1791262;80;21080;-72
2022/09/11 02:43:39;;;;;;;6.15;4.85;;;;;;;17.36;100.00;98907.59;1778093;80;20977;-70
2022/09/11 02:46:28;;;;;;;5.08;4.30;;;;;;;17.48;100.00;98909.30;1793041;79;20952;-72
2022/09/11 02:49:11;;;;;;;7.30;4.40;;;;;;;17.51;100.00;98905.16;1793264;80;20969;-74
2022/09/11 02:52:05;;;;;;;7.75;4.55;;;;;;;17.52;100.00;98910.92;1705071;81;21067;-73
2022/09/11 02:54:52;;;;;;;10.35;4.72;;;;;;;17.54;100.00;98914.72;1814783;78;21496;-73
2022/09/11 02:57:25;;;;;;;6.90;4.50;;;;;;;17.58;100.00;98917.55;1814536;79;20969;-72
2022/09/11 03:00:01;;;;;;;9.13;4.40;;;;;;;17.62;100.00;98911.43;1814776;79;20949;-75
2022/09/11 03:02:32;;;;;;;5.92;4.33;;;;;;;17.64;100.00;98918.79;1785144;79;21029;-74
2022/09/11 03:04:59;;;;;;;6.75;4.30;;;;;;;17.64;100.00;98925.17;1784660;79;21509;-72
2022/09/11 03:07:25;;;;;;;5.05;3.75;;;;;;;17.70;100.00;98924.23;1814650;79;21745;-71
2022/09/11 03:09:52;;;;;;;4.53;3.30;;;;;;;17.74;100.00;98930.62;1814773;79;20875;-72
2022/09/11 03:12:21;;;;;;;3.37;2.47;;;;;;;17.64;100.00;98937.70;1814675;79;20930;-72
2022/09/11 03:14:51;;;;;;;1.65;1.52;;;;;;;17.63;100.00;98943.66;1814581;79;20993;-71
2022/09/11 03:17:19;;;;;;;3.35;1.98;;;;;;;17.64;100.00;98950.23;1814646;79;20874;-72
2022/09/11 03:19:47;;;;;;;1.25;0.90;;;;;;;17.64;100.00;98950.82;1814493;79;21305;-71
2022/09/11 03:22:14;;;;;;;4.17;1.25;;;;;;;17.59;100.00;98963.70;1814416;79;20974;-72
2022/09/11 03:24:41;;;;;;;1.22;0.93;;;;;;;17.54;100.00;98959.89;1814635;78;20878;-74
2022/09/11 03:27:08;;;;;;;2.50;1.32;;;;;;;17.49;100.00;98959.03;1814696;79;20957;-73
2022/09/11 03:29:36;;;;;;;0.90;0.90;;;;;;;17.43;100.00;98960.57;1814557;79;21517;-70
2022/09/11 03:32:04;;;;;;;2.35;1.20;;;;;;;17.39;100.00;98966.09;1812192;77;21869;-73
2022/09/11 03:34:31;;;;;;;1.40;1.25;;;;;;;17.35;100.00;98965.84;1811662;79;20922;-72
2022/09/11 03:36:59;;;;;;;5.17;1.57;;;;;;;17.44;100.00;98967.73;1811620;79;20882;-71
2022/09/11 03:39:27;;;;;;;2.00;1.60;;;;;;;17.38;100.00;98966.48;1811294;79;21044;-72
2022/09/11 03:41:53;;;;;;;4.53;2.00;;;;;;;17.41;100.00;98965.71;1811778;79;21395;-71
2022/09/11 03:44:20;;;;;;;2.85;1.77;;;;;;;17.34;100.00;98969.22;1811380;79;21238;-71
2022/09/11 03:46:47;;;;;;;2.12;1.50;;;;;;;17.11;100.00;98967.34;1811462;79;21514;-71
2022/09/11 03:49:14;;;;;;;1.55;1.37;;;;;;;16.92;100.00;98969.67;1811422;79;21411;-71
2022/09/11 03:51:41;;;;;;;2.27;1.60;;;;;;;17.09;100.00;98968.88;1811220;79;21023;-72
2022/09/11 03:54:08;;;;;;;2.45;1.50;;;;;;;17.01;100.00;98972.95;1811880;79;20918;-71
2022/09/11 03:56:36;;;;;;;4.28;1.30;;;;;;;16.91;100.00;98975.81;1811338;79;21242;-72
2022/09/11 03:59:02;;;;;;;1.70;1.45;;;;;;;16.89;100.00;98975.95;1811680;79;20902;-70
2022/09/11 04:01:31;;;;;;;2.98;1.30;;;;;;;16.89;100.00;98971.78;1811579;79;20906;-70
2022/09/11 04:03:58;;;;;;;2.20;1.57;;;;;;;17.05;100.00;98975.78;1779684;79;21463;-71
2022/09/11 04:06:26;;;;;;;3.87;1.52;;;;;;;17.06;100.00;98973.81;1810261;79;21016;-69
2022/09/11 04:08:53;;;;;;;1.45;1.22;;;;;;;17.15;100.00;98977.13;1811395;79;21886;-71
2022/09/11 04:11:21;;;;;;;1.50;1.30;;;;;;;17.14;100.00;98974.14;1811595;79;20972;-71
2022/09/11 04:13:50;;;;;;;3.08;1.40;;;;;;;17.10;100.00;98974.09;1811356;79;20961;-71
2022/09/11 04:16:17;;;;;;;2.98;1.27;;;;;;;17.04;100.00;98980.54;1811399;79;20915;-72
2022/09/11 04:18:46;;;;;;;1.47;1.30;;;;;;;17.18;100.00;98979.15;1811384;79;21072;-72
2022/09/11 04:21:16;;;;;;;1.15;0.90;;;;;;;17.17;100.00;98973.38;1779875;79;21224;-73
2022/09/11 04:23:46;;;;;;;2.17;1.98;;;;;;;17.19;100.00;98979.37;1811662;79;20927;-72
2022/09/11 04:26:19;;;;;;;3.80;0.88;;;;;;;17.12;100.00;98978.70;1779267;79;20917;-72
2022/09/11 04:28:48;;;;;;;1.10;0.85;;;;;;;17.04;100.00;98979.15;1811247;79;20886;-70
2022/09/11 04:31:18;;;;;;;2.08;1.10;;;;;;;16.95;100.00;98982.81;1811387;79;20970;-72
2022/09/11 04:33:47;;;;;;;1.20;1.10;;;;;;;16.98;100.00;98982.64;1811339;79;21124;-71
2022/09/11 04:36:16;;;;;;;1.45;1.00;;;;;;;16.97;100.00;98982.44;1811351;79;20867;-71
2022/09/11 04:38:45;;;;;;;1.47;0.80;;;;;;;16.94;100.00;98981.20;1780123;79;20993;-72
2022/09/11 04:41:12;;;;;;;1.20;0.80;;;;;;;16.94;100.00;98985.98;1811321;79;20890;-71
2022/09/11 04:43:40;;;;;;;1.30;0.98;;;;;;;16.89;100.00;98989.29;1811482;79;20914;-74
2022/09/11 04:46:15;;;;;;;2.58;1.20;;;;;;;16.85;100.00;98987.64;1811785;79;21902;-71
2022/09/11 04:48:50;;;;;;;3.42;0.75;;;;;;;16.80;100.00;98981.83;1811450;79;21466;-73
2022/09/11 04:51:25;;;;;;;0.70;0.70;;;;;;;16.95;100.00;98978.64;1811839;79;21505;-71
2022/09/11 04:53:56;;;;;;;1.00;0.90;;;;;;;16.91;100.00;98987.52;1811518;79;21431;-72
2022/09/11 04:56:22;;;;;;;2.60;0.80;;;;;;;17.02;100.00;98984.31;1811368;79;21153;-73
2022/09/11 04:58:57;;;;;;;0.80;0.80;;;;;;;17.02;100.00;98980.72;1811322;79;21079;-72
2022/09/11 05:01:24;;;;;;;6.22;0.78;;;;;;;17.02;100.00;98984.89;1811491;79;20871;-72
2022/09/11 05:03:52;;;;;;;1.25;0.80;;;;;;;16.97;100.00;98981.05;1811543;79;20914;-73
2022/09/11 05:06:21;;;;;;;2.40;1.07;;;;;;;16.88;100.00;98975.76;1811323;79;20921;-73
2022/09/11 05:08:49;;;;;;;1.30;1.00;;;;;;;16.90;100.00;98974.80;1811638;79;21002;-71
2022/09/11 05:11:19;;;;;;;0.82;0.82;;;;;;;16.82;100.00;98974.48;1811460;79;21474;-72
2022/09/11 05:13:46;;;;;;;0.93;0.85;;;;;;;16.88;100.00;98986.89;1811454;79;20938;-73
2022/09/11 05:16:15;;;;;;;1.02;0.60;;;;;;;16.81;100.00;98969.50;1811565;79;21455;-72
2022/09/11 05:18:45;;;;;;;1.87;0.93;;;;;;;16.79;100.00;98979.63;1811216;79;20970;-72
2022/09/11 05:21:15;;;;;;;0.70;0.70;;;;;;;16.79;100.00;98979.63;1811374;79;20989;-70
2022/09/11 05:23:48;;;;;;;1.07;0.70;;;;;;;16.79;100.00;98985.19;1811361;79;21126;-71
2022/09/11 05:26:17;;;;;;;0.80;0.62;;;;;;;16.81;100.00;98982.02;1811947;79;21518;-72
2022/09/11 05:28:44;;;;;;;0.95;0.60;;;;;;;16.82;100.00;98986.40;1811414;79;21416;-76
2022/09/11 05:31:15;;;;;;;1.67;0.90;;;;;;;16.82;100.00;98993.35;1813508;77;20923;-72
2022/09/11 05:33:45;;;;;;;1.37;1.00;;;;;;;16.77;100.00;98997.27;1831585;78;20826;-76
2022/09/11 05:36:13;;;;;;;0.70;0.70;;;;;;;16.79;100.00;98999.09;1831659;78;21127;-71
2022/09/11 05:38:40;;;;;;;1.40;0.80;;;;;;;16.82;100.00;99000.91;1831768;78;21513;-71
2022/09/11 05:41:10;;;;;;;0.42;0.42;;;;;;;16.82;100.00;99004.48;1831706;78;20980;-70
2022/09/11 05:43:38;;;;;;;0.95;0.50;;;;;;;16.75;100.00;99013.52;1832205;78;21024;-72
2022/09/11 05:46:06;;;;;;;1.40;0.50;;;;;;;16.69;100.00;99005.88;1831473;78;20918;-72
2022/09/11 05:48:33;;;;;;;0.60;0.60;;;;;;;16.60;100.00;99003.38;1831762;78;21431;-72
2022/09/11 05:51:06;;;;;;;0.95;0.65;;;;;;;16.48;100.00;99008.56;1831965;78;20933;-71
2022/09/11 05:53:33;;;;;;;3.83;0.95;;;;;;;16.43;100.00;99012.44;1831595;78;20933;-71
2022/09/11 05:56:15;;;;;;;2.70;0.70;;;;;;;16.39;100.00;99006.81;1832087;78;21030;-74
2022/09/11 05:58:42;;;;;;;5.25;0.70;;;;;;;16.42;100.00;99008.06;1831752;78;21462;-72
2022/09/11 06:01:16;;;;;;;1.12;0.55;;;;;;;16.41;100.00;99005.08;1831906;78;22168;-73
2022/09/11 06:03:43;;;;;;;0.62;0.60;;;;;;;16.39;100.00;99003.25;1831586;78;21033;-73
2022/09/11 06:06:17;;;;;;;1.25;0.70;;;;;;;16.45;100.00;99000.36;1832122;78;20905;-74
2022/09/11 06:08:57;;;;;;;3.75;0.78;;;;;;;16.51;100.00;98996.08;1829126;78;20897;-72
2022/09/11 06:11:25;;;;;;;1.12;0.70;;;;;;;16.55;100.00;98996.95;1831534;78;20854;-71
2022/09/11 06:13:52;;;;;;;3.95;0.50;;;;;;;16.72;100.00;98992.64;1832030;78;21210;-72
2022/09/11 06:16:22;;;;;;;1.42;0.60;;;;;;;16.69;100.00;98985.02;1831891;78;20886;-73
2022/09/11 06:18:49;;;;;;;0.80;0.60;;;;;;;16.87;100.00;98991.64;1803950;78;21043;-75
2022/09/11 06:21:22;;;;;;;1.70;0.40;;;;;;;17.05;100.00;98991.09;1831674;78;20917;-72
2022/09/11 06:23:51;;;;;;;5.35;0.45;;;;;;;17.12;100.00;98988.44;1830166;78;20957;-71
2022/09/11 06:26:22;;;;;;;1.50;0.60;;;;;;;17.18;100.00;98993.67;1831671;78;21533;-71
2022/09/11 06:28:52;;;;;;;1.85;0.70;;;;;;;17.20;100.00;98997.67;1831711;78;21461;-72
2022/09/11 06:31:24;;;;;;;1.35;0.80;;;;;;;17.27;100.00;98995.56;1831353;78;20990;-74
2022/09/11 06:33:53;;;;;;;1.05;0.60;;;;;;;17.31;100.00;99008.14;1826115;78;20893;-73
2022/09/11 06:36:25;;;;;;;0.70;0.62;;;;;;;17.33;100.00;99005.79;1825995;78;21028;-73
2022/09/11 06:38:54;;;;;;;2.33;0.60;;;;;;;17.42;100.00;99000.72;1825955;78;21123;-74
2022/09/11 06:41:23;;;;;;;2.30;0.70;;;;;;;17.49;100.00;99000.00;1825717;78;20866;-75
2022/09/11 06:43:52;;;;;;;2.10;0.80;;;;;;;17.56;100.00;98996.48;1825808;78;20949;-72
2022/09/11 06:46:20;;;;;;;0.80;0.80;;;;;;;17.60;100.00;98991.78;1825858;78;21462;-74
2022/09/11 06:48:49;;;;;;;1.22;1.05;;;;;;;17.62;100.00;98993.59;1825951;78;21466;-71
2022/09/11 06:51:19;;;;;;;1.25;0.80;;;;;;;17.63;100.00;98993.21;1826746;78;21107;-75
2022/09/11 06:53:47;;;;;;;1.00;0.90;;;;;;;17.62;100.00;98995.77;1825207;78;20976;-72
2022/09/11 06:56:18;;;;;;;2.17;0.93;;;;;;;17.61;100.00;98991.97;1826172;78;20914;-74
2022/09/11 06:58:45;;;;;;;0.70;0.70;;;;;;;17.47;100.00;98995.42;1825904;78;21028;-74
2022/09/11 07:01:17;;;;;;;1.17;1.07;;;;;;;17.44;100.00;98996.97;1826119;78;20909;-75
2022/09/11 12:21:31;;;;;;;6.67;5.05;;;;;;;18.03;100.00;98976.09;1807512;77;22727;-71
2022/09/11 12:24:08;;;;;;;5.15;3.90;;;;;;;18.19;100.00;98973.64;1784028;80;20961;-73
2022/09/11 12:26:42;;;;;;;4.95;4.00;;;;;;;17.93;100.00;98972.61;1784928;80;21148;-73
2022/09/11 12:29:42;;;;;;;4.75;3.60;;;;;;;18.07;100.00;98969.12;1771979;80;20913;-73
2022/09/11 12:32:25;;;;;;;4.60;4.20;;;;;;;18.39;100.00;98957.47;1785377;80;20905;-70
2022/09/11 12:34:59;;;;;;;5.03;4.12;;;;;;;18.56;100.00;98950.41;1784922;80;21477;-71
2022/09/11 12:37:36;;;;;;;4.47;3.92;;;;;;;18.63;100.00;98951.05;1785277;80;20909;-71
2022/09/11 12:40:19;;;;;;;5.53;4.15;;;;;;;18.72;100.00;98945.12;1784778;80;21552;-72
2022/09/11 12:42:50;;;;;;;4.90;4.50;;;;;;;18.81;100.00;98938.62;1785092;80;20904;-73
2022/09/11 12:45:29;;;;;;;5.50;5.00;;;;;;;19.08;100.00;98937.53;1784043;80;20972;-75
2022/09/11 12:48:05;;;;;;;5.15;4.65;;;;;;;19.24;100.00;98931.65;1780193;80;20957;-72
2022/09/11 12:50:32;;;;;;;5.15;4.65;;;;;;;19.41;100.00;98920.33;1756083;80;21005;-70
2022/09/11 12:53:01;;;;;;;6.15;4.42;;;;;;;19.62;100.00;98917.97;1785125;80;21110;-71
2022/09/11 12:55:57;;;;;;;6.65;4.95;;;;;;;19.72;100.00;98914.37;1784641;80;20928;-71
2022/09/11 12:58:29;;;;;;;5.03;4.62;;;;;;;19.79;100.00;98911.59;1761054;80;20984;-72
2022/09/11 13:01:12;;;;;;;4.42;4.03;;;;;;;19.77;100.00;98909.00;1784828;79;20853;-70
2022/09/11 13:03:57;;;;;;;6.80;4.72;;;;;;;19.85;100.00;98906.41;1785077;80;21000;-73
2022/09/11 13:06:27;;;;;;;5.03;4.42;;;;;;;19.95;100.00;98904.81;1785227;80;21048;-72
2022/09/11 13:08:58;;;;;;;4.30;3.90;;;;;;;20.07;100.00;98898.05;1756176;80;20936;-71
2022/09/11 13:11:42;;;;;;;4.97;4.47;;;;;;;20.15;100.00;98901.03;1829096;78;20930;-73
2022/09/11 13:14:32;;;;;;;6.35;4.22;;;;;;;20.22;100.00;98888.23;1829043;78;20913;-71
2022/09/11 13:17:05;;;;;;;4.67;4.28;;;;;;;20.16;100.00;98882.27;1829145;78;20895;-72
2022/09/11 13:19:38;;;;;;;4.33;3.95;;;;;;;20.26;100.00;98875.86;1827639;78;21852;-71
2022/09/11 13:22:29;;;;;;;4.95;4.05;;;;;;;20.33;100.00;98870.05;1828557;78;21516;-71
2022/09/11 13:25:18;;;;;;;3.85;3.47;;;;;;;20.37;100.00;98868.06;1828587;78;20942;-71
2022/09/11 13:27:54;;;;;;;3.83;3.52;;;;;;;20.40;100.00;98860.25;1796201;80;20899;-73
2022/09/11 13:30:23;;;;;;;5.08;4.20;;;;;;;20.43;100.00;98853.25;1828474;78;20935;-73
2022/09/11 13:32:58;;;;;;;4.17;3.77;;;;;;;20.44;100.00;98859.63;1828699;78;21101;-74
2022/09/11 13:35:26;;;;;;;5.70;4.20;;;;;;;20.47;100.00;98859.44;1825673;78;20860;-73
2022/09/11 13:38:08;;;;;;;6.87;3.85;;;;;;;20.55;100.00;98861.00;1828310;78;20909;-71
2022/09/11 13:41:00;;;;;;;5.10;4.60;;;;;;;20.59;100.00;98858.20;1828138;78;20896;-70
2022/09/11 13:43:38;;;;;;;4.30;3.90;;;;;;;20.59;100.00;98850.58;1828764;78;20849;-73
2022/09/11 13:46:23;;;;;;;6.83;4.25;;;;;;;20.56;100.00;98854.20;1822772;78;21083;-71
2022/09/11 13:48:56;;;;;;;5.45;4.40;;;;;;;20.36;100.00;98851.06;1823421;78;20979;-72
2022/09/11 13:51:31;;;;;;;4.70;4.30;;;;;;;20.30;100.00;98843.08;1828387;78;20947;-72
2022/09/11 13:54:30;;;;;;;7.28;4.20;;;;;;;20.21;100.00;98844.70;1823833;78;20893;-73
2022/09/11 13:57:05;;;;;;;5.30;4.03;;;;;;;20.10;100.00;98843.31;1791593;80;20867;-73
2022/09/11 13:59:47;;;;;;;4.85;4.22;;;;;;;20.07;100.00;98836.55;1796081;80;21228;-71
2022/09/11 14:02:49;;;;;;;4.97;4.10;;;;;;;19.92;100.00;98840.73;1825169;78;20972;-73
2022/09/11 14:05:23;;;;;;;4.80;4.30;;;;;;;20.01;100.00;98833.94;1828768;78;20895;-73
2022/09/11 14:08:27;;;;;;;4.78;3.90;;;;;;;19.99;100.00;98825.15;1828392;78;20960;-74
2022/09/11 14:10:56;;;;;;;5.20;4.15;;;;;;;19.87;100.00;98832.75;1766289;78;20974;-71
2022/09/11 14:13:41;;;;;;;6.17;3.80;;;;;;;19.82;100.00;98828.97;1796157;80;20917;-72
2022/09/11 14:16:21;;;;;;;4.92;3.85;;;;;;;19.90;100.00;98826.36;1828655;78;20855;-71
2022/09/11 14:19:11;;;;;;;6.53;3.98;;;;;;;20.02;100.00;98825.73;1823809;78;20928;-72
2022/09/11 14:21:39;;;;;;;5.25;4.03;;;;;;;20.08;100.00;98819.95;1828516;78;20840;-72
2022/09/11 14:24:35;;;;;;;4.40;3.87;;;;;;;20.11;100.00;98821.16;1828220;78;21544;-71
2022/09/11 14:27:33;;;;;;;4.80;4.00;;;;;;;20.02;100.00;98813.16;1783249;80;20934;-71
2022/09/11 14:30:02;;;;;;;5.53;3.72;;;;;;;19.92;100.00;98811.98;1795834;80;20971;-73
2022/09/11 14:32:40;;;;;;;4.90;3.98;;;;;;;19.95;100.00;98823.16;1826048;78;20909;-73
2022/09/11 14:35:08;;;;;;;4.15;3.67;;;;;;;19.98;100.00;98824.34;1795829;80;20922;-72
2022/09/11 14:37:42;;;;;;;4.97;4.10;;;;;;;19.94;100.00;98821.55;1828899;78;20933;-73
2022/09/11 14:40:17;;;;;;;4.00;3.60;;;;;;;19.90;100.00;98826.36;1828375;78;21046;-71
2022/09/11 14:42:43;;;;;;;5.05;3.90;;;;;;;19.93;100.00;98820.55;1796129;80;20982;-72
2022/09/11 14:45:22;;;;;;;3.75;3.45;;;;;;;19.97;100.00;98823.34;1828447;78;21393;-70
2022/09/11 14:47:49;;;;;;;6.75;3.75;;;;;;;19.98;100.00;98821.55;1828624;78;20913;-72
2022/09/11 14:50:16;;;;;;;4.75;4.00;;;;;;;19.95;100.00;98817.56;1828429;78;21392;-73
2022/09/11 14:52:45;;;;;;;5.15;3.58;;;;;;;19.94;100.00;98817.97;1828840;78;21045;-73
2022/09/11 14:55:21;;;;;;;5.50;5.00;;;;;;;19.93;100.00;98811.58;1828276;78;20903;-73
2022/09/11 14:57:48;;;;;;;7.20;4.20;;;;;;;19.95;100.00;98815.36;1795951;80;21401;-73
2022/09/11 15:00:23;;;;;;;4.75;4.10;;;;;;;19.89;100.00;98804.41;1828348;78;20872;-73
2022/09/11 15:02:54;;;;;;;4.70;4.25;;;;;;;19.85;100.00;98807.20;1827255;78;21013;-72
2022/09/11 15:05:23;;;;;;;6.80;5.12;;;;;;;19.84;100.00;98801.39;1828514;78;20992;-72
2022/09/11 15:07:49;;;;;;;4.60;3.87;;;;;;;19.88;100.00;98804.99;1828205;78;20944;-69
2022/09/11 15:10:19;;;;;;;4.60;4.17;;;;;;;19.88;100.00;98806.39;1828370;78;21427;-71
2022/09/11 15:12:51;;;;;;;4.78;4.37;;;;;;;19.82;100.00;98802.41;1801899;78;20850;-72
2022/09/11 15:15:21;;;;;;;7.95;5.22;;;;;;;19.73;100.00;98798.63;1775514;78;20867;-72
2022/09/11 15:17:48;;;;;;;6.15;4.85;;;;;;;19.66;100.00;98802.22;1828394;78;21907;-72
2022/09/11 15:20:19;;;;;;;5.35;4.42;;;;;;;19.62;100.00;98802.81;1783680;78;20884;-72
2022/09/11 15:22:48;;;;;;;4.87;4.47;;;;;;;19.56;100.00;98800.23;1828356;78;21471;-72
2022/09/11 15:25:15;;;;;;;5.25;4.58;;;;;;;19.42;100.00;98810.20;1828696;78;20907;-72
2022/09/11 15:27:41;;;;;;;5.17;4.50;;;;;;;19.37;100.00;98809.78;1828366;78;20992;-73
2022/09/11 15:30:09;;;;;;;5.65;4.72;;;;;;;19.31;100.00;98808.00;1828633;78;21215;-73
2022/09/11 15:32:39;;;;;;;7.67;5.17;;;;;;;19.31;100.00;98810.80;1801386;78;20877;-71
2022/09/11 15:35:08;;;;;;;6.17;5.58;;;;;;;19.25;100.00;98808.17;1801010;78;20899;-72
2022/09/11 15:37:37;;;;;;;6.92;5.50;;;;;;;19.10;100.00;98809.53;1828447;78;21504;-71
2022/09/11 15:40:06;;;;;;;7.75;5.30;;;;;;;19.16;100.00;98812.16;1793968;80;20958;-71
2022/09/11 15:42:37;;;;;;;5.62;5.12;;;;;;;19.12;100.00;98813.35;1828172;78;21302;-72
2022/09/11 15:45:07;;;;;;;6.42;5.83;;;;;;;19.04;100.00;98816.70;1828310;78;20959;-73
2022/09/11 15:47:36;;;;;;;6.75;5.95;;;;;;;18.98;100.00;98824.06;1827530;78;21469;-71
2022/09/11 15:50:07;;;;;;;7.90;6.30;;;;;;;18.88;100.00;98827.63;1828591;78;20930;-72
2022/09/11 15:52:35;;;;;;;10.23;6.55;;;;;;;18.82;100.00;98827.78;1828454;78;21036;-74
2022/09/11 15:55:02;;;;;;;10.40;6.95;;;;;;;18.78;100.00;98834.74;1828323;78;21106;-73
2022/09/11 15:57:30;;;;;;;9.40;6.60;;;;;;;18.69;100.00;98829.55;1828440;78;20953;-71
2022/09/11 15:59:58;;;;;;;7.58;6.85;;;;;;;18.66;100.00;98820.58;1828313;78;21475;-74
2022/09/11 16:02:26;;;;;;;8.70;7.80;;;;;;;18.62;100.00;98826.72;1828658;78;20901;-72
2022/09/11 16:04:53;;;;;;;11.30;8.95;;;;;;;18.56;100.00;98826.91;1828312;78;20975;-73
2022/09/11 16:07:23;;;;;;;9.83;7.90;;;;;;;18.53;100.00;98817.91;1828282;78;21110;-72
2022/09/11 16:10:04;;;;;;;9.23;8.30;;;;;;;18.46;100.00;98821.45;1823703;78;20820;-73
2022/09/11 16:13:00;;;;;;;8.68;7.72;;;;;;;18.37;100.00;98814.25;1828322;78;21512;-71
2022/09/11 16:15:27;;;;;;;12.88;8.63;;;;;;;18.28;100.00;98818.00;1795016;80;21439;-72
2022/09/11 16:17:57;;;;;;;11.03;8.55;;;;;;;18.23;100.00;98824.75;1827283;78;20954;-73
2022/09/11 16:20:26;;;;;;;9.90;8.05;;;;;;;18.15;100.00;98832.84;1825661;77;21143;-72
2022/09/11 16:22:55;;;;;;;10.68;9.68;;;;;;;18.13;100.00;98836.63;1812438;79;20930;-72
2022/09/11 16:25:22;;;;;;;9.33;8.23;;;;;;;18.09;100.00;98832.98;1812488;79;21037;-73
2022/09/11 16:27:50;;;;;;;9.85;8.88;;;;;;;18.00;100.00;98838.30;1812736;79;20878;-73
2022/09/11 16:30:18;;;;;;;8.53;7.62;;;;;;;17.94;100.00;98833.48;1812544;79;20909;-74
2022/09/11 16:32:46;;;;;;;9.90;7.90;;;;;;;17.90;100.00;98836.23;1812314;79;21016;-72
2022/09/11 16:35:13;;;;;;;11.08;9.05;;;;;;;17.88;100.00;98838.61;1812430;79;20972;-72
2022/09/11 16:37:42;;;;;;;12.85;10.00;;;;;;;17.88;100.00;98837.21;1812416;79;20847;-73
2022/09/11 16:40:09;;;;;;;11.38;9.83;;;;;;;17.84;100.00;98833.61;1812521;79;21482;-71
2022/09/11 16:42:39;;;;;;;15.98;12.33;;;;;;;17.79;100.00;98835.37;1812489;79;20962;-71
2022/09/11 16:45:10;;;;;;;14.23;11.33;;;;;;;17.76;100.00;98837.73;1812300;79;21042;-73
2022/09/11 16:50:18;;;;;;;17.05;13.30;;;;;;;17.71;100.00;98852.59;1808942;79;20949;-71
2022/09/11 16:52:45;;;;;;;14.30;11.85;;;;;;;17.67;100.00;98849.81;1812506;79;21019;-73
2022/09/11 16:55:13;;;;;;;16.00;11.73;;;;;;;17.65;100.00;98857.74;1812381;79;20953;-73
2022/09/11 16:57:48;;;;;;;15.35;11.38;;;;;;;17.62;100.00;98850.16;1808806;77;20842;-73
2022/09/11 17:00:16;;;;;;;14.23;11.95;;;;;;;17.59;100.00;98850.91;1816307;79;21500;-73
2022/09/11 17:02:45;;;;;;;15.38;12.23;;;;;;;17.56;100.00;98848.89;1812850;79;21017;-73
2022/09/11 17:05:15;;;;;;;14.95;11.05;;;;;;;17.57;100.00;98847.11;1812683;79;20969;-71
2022/09/11 17:07:48;;;;;;;18.27;12.07;;;;;;;17.58;100.00;98849.31;1789840;80;20869;-72
2022/09/11 17:10:19;;;;;;;16.05;11.95;;;;;;;17.48;100.00;98849.43;1793251;80;20917;-72
2022/09/11 17:12:45;;;;;;;15.13;11.88;;;;;;;17.51;100.00;98855.03;1762282;81;20920;-71